createdAt,value
2022-08-09T00:00:11.968Z,99.00
2022-08-09T00:02:49.079Z,98.90
2022-08-09T00:06:16.586Z,99.00
2022-08-09T00:08:09.895Z,99.10
2022-08-09T00:10:38.520Z,99.20
2022-08-09T00:13:12.925Z,99.30
2022-08-09T00:15:59.251Z,99.40
2022-08-09T00:18:35.037Z,99.40
2022-08-09T00:21:07.898Z,99.60
2022-08-09T00:23:55.685Z,99.20
2022-08-09T00:26:32.507Z,99.60
2022-08-09T00:29:01.686Z,99.90
2022-08-09T00:31:57.328Z,99.90
2022-08-09T00:34:19.395Z,99.80
2022-08-09T00:36:48.130Z,99.90
2022-08-09T00:40:08.860Z,99.90
2022-08-09T00:44:14.160Z,99.90
2022-08-09T00:44:49.327Z,99.90
2022-08-09T00:47:16.052Z,99.90
2022-08-09T00:49:43.870Z,99.90
2022-08-09T00:52:22.837Z,99.90
2022-08-09T00:54:58.530Z,99.90
2022-08-09T00:57:34.901Z,99.90
2022-08-09T01:00:22.029Z,99.90
2022-08-09T01:03:13.595Z,99.90
2022-08-09T01:05:58.416Z,99.90
2022-08-09T01:08:59.849Z,99.90
2022-08-09T01:11:35.257Z,99.90
2022-08-09T01:14:20.376Z,99.90
2022-08-09T01:16:51.755Z,99.90
2022-08-09T01:19:57.188Z,99.90
2022-08-09T01:22:57.261Z,99.90
2022-08-09T01:25:37.372Z,99.90
2022-08-09T01:28:10.008Z,99.90
2022-08-09T01:30:52.439Z,99.90
2022-08-09T01:33:25.236Z,99.90
2022-08-09T01:36:03.083Z,99.90
2022-08-09T01:38:34.506Z,99.90
2022-08-09T01:41:11.949Z,99.90
2022-08-09T01:43:42.077Z,99.90
2022-08-09T01:46:23.910Z,99.90
2022-08-09T01:48:53.986Z,99.90
2022-08-09T01:51:22.706Z,99.90
2022-08-09T01:53:53.776Z,99.90
2022-08-09T01:56:27.032Z,99.90
2022-08-09T01:58:56.556Z,99.90
2022-08-09T02:01:58.432Z,99.90
2022-08-09T02:04:13.130Z,99.90
2022-08-09T02:07:02.887Z,99.90
2022-08-09T02:09:42.272Z,99.90
2022-08-09T02:12:13.454Z,99.90
2022-08-09T02:14:48.613Z,99.90
2022-08-09T02:17:59.261Z,99.90
2022-08-09T02:20:10.697Z,99.90
2022-08-09T02:22:48.331Z,99.90
2022-08-09T02:25:20.685Z,99.90
2022-08-09T02:28:04.109Z,99.90
2022-08-09T02:30:37.910Z,99.90
2022-08-09T02:33:16.980Z,99.90
2022-08-09T02:36:03.804Z,99.90
2022-08-09T02:38:32.122Z,99.90
2022-08-09T02:41:10.256Z,99.90
2022-08-09T02:43:42.579Z,99.90
2022-08-09T02:46:24.223Z,99.90
2022-08-09T02:48:52.912Z,99.90
2022-08-09T02:51:22.535Z,99.90
2022-08-09T02:53:59.618Z,99.90
2022-08-09T02:56:30.326Z,99.90
2022-08-09T02:58:58.675Z,99.90
2022-08-09T03:01:29.433Z,99.90
2022-08-09T03:04:19.306Z,99.90
2022-08-09T03:06:48.896Z,99.90
2022-08-09T03:09:17.233Z,99.90
2022-08-09T03:12:08.481Z,99.90
2022-08-09T03:14:32.729Z,99.90
2022-08-09T03:17:01.468Z,99.90
2022-08-09T03:19:59.116Z,99.90
2022-08-09T03:22:25.015Z,99.90
2022-08-09T03:25:06.542Z,99.90
2022-08-09T03:27:48.606Z,99.90
2022-08-09T03:30:23.632Z,99.90
2022-08-09T03:33:17.274Z,99.90
2022-08-09T03:36:13.034Z,99.90
2022-08-09T03:38:43.283Z,99.90
2022-08-09T03:41:16.365Z,99.90
2022-08-09T03:44:03.366Z,99.90
2022-08-09T03:46:34.560Z,99.90
2022-08-09T03:49:08.193Z,99.90
2022-08-09T03:51:55.371Z,99.90
2022-08-09T03:54:29.405Z,99.90
2022-08-09T03:56:59.021Z,99.90
2022-08-09T03:59:52.969Z,99.90
2022-08-09T04:02:14.331Z,99.90
2022-08-09T04:04:45.545Z,99.90
2022-08-09T04:07:13.172Z,99.90
2022-08-09T04:09:47.926Z,99.90
2022-08-09T04:12:30.895Z,99.90
2022-08-09T04:15:02.130Z,99.90
2022-08-09T04:17:39.358Z,99.90
2022-08-09T04:20:11.270Z,99.90
2022-08-09T04:22:41.104Z,99.90
2022-08-09T04:25:11.795Z,99.90
2022-08-09T04:27:42.553Z,99.90
2022-08-09T04:30:17.902Z,99.90
2022-08-09T04:32:47.817Z,99.90
2022-08-09T04:35:15.372Z,99.90
2022-08-09T04:37:46.393Z,99.90
2022-08-09T04:40:28.926Z,99.90
2022-08-09T04:43:01.386Z,99.90
2022-08-09T04:45:30.640Z,99.90
2022-08-09T04:48:04.089Z,99.90
2022-08-09T04:50:35.058Z,99.90
2022-08-09T04:53:12.959Z,99.90
2022-08-09T04:55:43.945Z,99.90
2022-08-09T04:58:32.905Z,99.90
2022-08-09T05:01:02.285Z,99.90
2022-08-09T05:03:43.334Z,99.90
2022-08-09T05:06:25.772Z,99.90
2022-08-09T05:08:59.785Z,99.90
2022-08-09T05:11:32.325Z,99.90
2022-08-09T05:14:05.814Z,99.90
2022-08-09T05:16:58.506Z,99.80
2022-08-09T05:19:24.410Z,99.90
2022-08-09T05:21:55.916Z,99.90
2022-08-09T05:24:24.183Z,99.40
2022-08-09T05:26:51.936Z,98.70
2022-08-09T05:29:24.194Z,97.50
2022-08-09T05:32:00.391Z,96.80
2022-08-09T05:34:31.030Z,96.90
2022-08-09T05:37:06.762Z,97.20
2022-08-09T05:39:43.435Z,98.30
2022-08-09T05:42:20.508Z,99.30
2022-08-09T05:45:00.822Z,99.90
2022-08-09T05:47:30.371Z,99.90
2022-08-09T05:50:23.872Z,99.80
2022-08-09T05:52:53.924Z,98.30
2022-08-09T05:55:23.436Z,98.40
2022-08-09T05:57:57.484Z,98.20
2022-08-09T06:00:30.643Z,98.20
2022-08-09T06:03:01.495Z,98.90
2022-08-09T06:05:54.671Z,99.30
2022-08-09T06:08:19.387Z,99.50
2022-08-09T06:10:51.949Z,99.60
2022-08-09T06:13:20.421Z,99.50
2022-08-09T06:15:51.835Z,99.60
2022-08-09T06:18:23.980Z,99.80
2022-08-09T06:20:58.299Z,99.40
2022-08-09T06:23:55.354Z,99.10
2022-08-09T06:26:15.236Z,99.30
2022-08-09T06:29:01.103Z,99.50
2022-08-09T06:31:40.599Z,99.00
2022-08-09T06:34:20.334Z,98.80
2022-08-09T06:36:49.854Z,97.70
2022-08-09T06:39:24.250Z,97.40
2022-08-09T06:42:11.365Z,97.40
2022-08-09T06:44:38.378Z,96.30
2022-08-09T06:47:05.477Z,96.10
2022-08-09T06:50:12.234Z,96.10
2022-08-09T06:52:23.505Z,95.70
2022-08-09T06:54:52.120Z,96.00
2022-08-09T06:57:25.755Z,95.60
2022-08-09T07:00:50.844Z,95.70
2022-08-09T07:02:56.025Z,96.10
2022-08-09T07:05:24.463Z,95.90
2022-08-09T07:08:11.125Z,96.20
2022-08-09T07:10:38.470Z,94.40
2022-08-09T07:13:27.587Z,93.40
2022-08-09T07:16:35.057Z,92.70
2022-08-09T07:18:39.048Z,93.00
2022-08-09T07:21:07.782Z,92.20
2022-08-09T07:23:36.129Z,90.40
2022-08-09T07:26:04.179Z,90.70
2022-08-09T07:28:31.449Z,87.30
2022-08-09T07:31:04.573Z,90.40
2022-08-09T07:33:53.147Z,91.00
2022-08-09T07:36:19.658Z,90.80
2022-08-09T07:38:53.956Z,91.00
2022-08-09T07:41:25.962Z,90.90
2022-08-09T07:43:55.916Z,90.40
2022-08-09T07:46:27.623Z,90.60
2022-08-09T07:48:59.453Z,90.30
2022-08-09T07:52:03.777Z,90.40
2022-08-09T07:54:14.905Z,90.10
2022-08-09T07:56:48.791Z,90.20
2022-08-09T07:59:25.360Z,90.00
2022-08-09T08:02:00.252Z,88.70
2022-08-09T08:04:32.118Z,88.10
2022-08-09T08:07:00.186Z,88.10
2022-08-09T08:09:38.716Z,86.60
2022-08-09T08:12:28.420Z,87.20
2022-08-09T08:14:57.929Z,87.80
2022-08-09T08:17:54.170Z,87.60
2022-08-09T08:20:13.650Z,87.40
2022-08-09T08:22:41.082Z,86.60
2022-08-09T08:25:13.522Z,87.10
2022-08-09T08:27:42.866Z,86.70
2022-08-09T08:30:11.728Z,86.90
2022-08-09T08:32:41.735Z,85.90
2022-08-09T08:35:22.478Z,85.40
2022-08-09T08:38:02.038Z,85.00
2022-08-09T08:40:33.208Z,83.60
2022-08-09T08:43:03.106Z,84.20
2022-08-09T08:45:51.524Z,84.70
2022-08-09T08:48:22.253Z,83.40
2022-08-09T08:50:51.901Z,83.10
2022-08-09T08:53:22.082Z,82.00
2022-08-09T08:55:48.959Z,81.20
2022-08-09T08:58:20.498Z,82.00
2022-08-09T09:01:01.906Z,82.60
2022-08-09T09:03:38.001Z,82.90
2022-08-09T09:06:05.711Z,81.40
2022-08-09T09:08:40.720Z,80.50
2022-08-09T09:11:13.559Z,81.50
2022-08-09T09:13:56.470Z,80.80
2022-08-09T09:16:32.193Z,81.00
2022-08-09T09:22:11.399Z,78.10
2022-08-09T09:24:43.327Z,78.90
2022-08-09T09:27:21.972Z,80.60
2022-08-09T09:30:12.365Z,81.20
2022-08-09T09:32:43.439Z,80.80
2022-08-09T09:35:17.664Z,79.90
2022-08-09T09:37:45.966Z,79.00
2022-08-09T09:40:13.157Z,80.10
2022-08-09T09:42:42.797Z,78.70
2022-08-09T09:45:14.159Z,77.10
2022-08-09T09:47:56.684Z,78.00
2022-08-09T09:50:55.815Z,76.30
2022-08-09T09:53:57.611Z,77.30
2022-08-09T09:56:20.084Z,77.10
2022-08-09T09:58:58.074Z,75.20
2022-08-09T10:01:30.297Z,76.00
2022-08-09T10:04:23.016Z,77.30
2022-08-09T10:06:57.998Z,79.10
2022-08-09T10:09:25.574Z,79.00
2022-08-09T10:12:14.371Z,78.40
2022-08-09T10:14:50.040Z,78.40
2022-08-09T10:17:51.050Z,80.10
2022-08-09T10:20:35.630Z,81.70
2022-08-09T10:23:20.183Z,82.70
2022-08-09T10:26:06.517Z,82.90
2022-08-09T10:28:36.203Z,82.60
2022-08-09T10:34:10.954Z,82.30
2022-08-09T10:36:39.966Z,81.60
2022-08-09T10:39:15.873Z,80.40
2022-08-09T10:41:47.800Z,78.80
2022-08-09T10:44:18.380Z,78.80
2022-08-09T10:48:10.143Z,77.60
2022-08-09T10:50:14.785Z,77.20
2022-08-09T10:52:51.484Z,77.70
2022-08-09T10:55:22.750Z,76.80
2022-08-09T10:57:51.803Z,77.30
2022-08-09T11:00:33.276Z,76.90
2022-08-09T11:03:15.493Z,75.60
2022-08-09T11:06:18.465Z,75.30
2022-08-09T11:08:51.186Z,72.70
2022-08-09T11:11:20.917Z,73.50
2022-08-09T11:14:28.180Z,72.30
2022-08-09T11:16:57.256Z,73.40
2022-08-09T11:20:12.207Z,75.10
2022-08-09T11:22:56.789Z,76.00
2022-08-09T11:25:44.788Z,75.60
2022-08-09T11:28:33.946Z,73.40
2022-08-09T11:31:02.281Z,74.00
2022-08-09T11:33:42.946Z,72.10
2022-08-09T11:36:12.325Z,72.30
2022-08-09T11:39:02.133Z,72.90
2022-08-09T11:41:37.456Z,71.70
2022-08-09T11:44:05.935Z,71.70
2022-08-09T11:46:56.887Z,72.60
2022-08-09T11:50:55.241Z,71.50
2022-08-09T11:53:44.083Z,72.90
2022-08-09T11:55:53.203Z,73.40
2022-08-09T11:58:32.449Z,72.70
2022-08-09T12:01:03.517Z,73.70
2022-08-09T12:03:54.916Z,74.40
2022-08-09T12:06:26.504Z,73.40
2022-08-09T12:08:55.721Z,73.40
2022-08-09T12:11:24.599Z,72.50
2022-08-09T12:14:10.711Z,72.30
2022-08-09T12:16:44.318Z,71.30
2022-08-09T12:19:13.751Z,71.30
2022-08-09T12:21:50.654Z,72.20
2022-08-09T12:24:26.018Z,73.10
2022-08-09T12:29:14.326Z,72.30
2022-08-09T12:30:00.018Z,72.20
2022-08-09T12:32:31.352Z,72.10
2022-08-09T12:35:04.736Z,71.70
2022-08-09T12:37:44.144Z,70.70
2022-08-09T12:40:18.582Z,71.10
2022-08-09T12:42:50.427Z,70.30
2022-08-09T12:45:33.356Z,68.90
2022-08-09T12:48:05.058Z,67.90
2022-08-09T12:50:34.303Z,68.50
2022-08-09T12:53:09.627Z,68.50
2022-08-09T12:56:15.994Z,70.30
2022-08-09T12:58:32.510Z,70.40
2022-08-09T13:01:04.542Z,69.20
2022-08-09T13:03:54.185Z,68.10
2022-08-09T13:06:37.093Z,69.10
2022-08-09T13:09:14.939Z,71.00
2022-08-09T13:11:45.241Z,72.50
2022-08-09T13:14:42.803Z,71.30
2022-08-09T13:17:03.628Z,71.40
2022-08-09T13:20:10.364Z,70.60
2022-08-09T13:22:35.318Z,70.30
2022-08-09T13:25:13.693Z,70.70
2022-08-09T13:27:55.142Z,68.50
2022-08-09T13:30:50.933Z,68.50
2022-08-09T13:33:20.907Z,68.80
2022-08-09T13:36:37.534Z,68.50
2022-08-09T13:38:55.821Z,69.20
2022-08-09T13:41:57.506Z,67.30
2022-08-09T13:44:16.495Z,66.30
2022-08-09T13:47:25.354Z,68.20
2022-08-09T13:49:38.099Z,69.20
2022-08-09T13:52:22.070Z,69.20
2022-08-09T13:54:58.723Z,68.70
2022-08-09T13:57:36.748Z,69.20
2022-08-09T14:00:15.546Z,69.60
2022-08-09T14:03:03.976Z,69.40
2022-08-09T14:06:01.247Z,70.80
2022-08-09T14:08:22.295Z,70.70
2022-08-09T14:10:52.153Z,71.20
2022-08-09T14:13:28.147Z,71.70
2022-08-09T14:16:10.917Z,70.50
2022-08-09T14:18:43.322Z,71.50
2022-08-09T14:21:17.605Z,68.20
2022-08-09T14:23:54.477Z,68.20
2022-08-09T14:26:25.243Z,68.60
2022-08-09T14:28:52.283Z,67.50
2022-08-09T14:31:18.978Z,66.80
2022-08-09T14:33:54.470Z,67.20
2022-08-09T14:36:21.448Z,64.30
2022-08-09T14:38:53.070Z,64.50
2022-08-09T14:41:34.624Z,65.70
2022-08-09T14:44:07.009Z,66.30
2022-08-09T14:46:56.031Z,66.40
2022-08-09T14:49:24.980Z,63.90
2022-08-09T14:51:51.778Z,65.70
2022-08-09T14:54:27.899Z,66.30
2022-08-09T14:56:59.057Z,67.60
2022-08-09T14:59:28.554Z,69.10
2022-08-09T15:01:56.139Z,69.40
2022-08-09T15:04:23.891Z,70.00
2022-08-09T15:06:51.837Z,70.60
2022-08-09T15:10:03.811Z,70.30
2022-08-09T15:12:07.759Z,70.80
2022-08-09T15:14:35.239Z,70.80
2022-08-09T15:17:09.692Z,70.70
2022-08-09T15:19:37.154Z,70.40
2022-08-09T15:22:25.872Z,69.90
2022-08-09T15:24:53.500Z,70.10
2022-08-09T15:27:21.110Z,71.00
2022-08-09T15:30:58.819Z,69.10
2022-08-09T15:32:35.663Z,69.40
2022-08-09T15:35:40.393Z,70.80
2022-08-09T15:38:10.758Z,69.70
2022-08-09T15:40:37.872Z,69.60
2022-08-09T15:43:13.733Z,68.00
2022-08-09T15:46:07.597Z,69.00
2022-08-09T15:48:30.794Z,70.80
2022-08-09T15:51:00.131Z,67.80
2022-08-09T15:54:03.416Z,69.10
2022-08-09T15:56:21.613Z,68.90
2022-08-09T15:58:56.899Z,69.10
2022-08-09T16:01:23.652Z,69.10
2022-08-09T16:03:51.050Z,69.30
2022-08-09T16:06:35.147Z,70.50
2022-08-09T16:09:06.107Z,69.70
2022-08-09T16:11:33.431Z,70.70
2022-08-09T16:14:04.114Z,70.30
2022-08-09T16:16:37.193Z,70.80
2022-08-09T16:19:06.180Z,70.90
2022-08-09T16:21:35.352Z,70.60
2022-08-09T16:24:04.745Z,70.30
2022-08-09T16:26:35.437Z,70.10
2022-08-09T16:29:12.631Z,70.40
2022-08-09T16:32:18.038Z,69.20
2022-08-09T16:34:55.352Z,69.70
2022-08-09T16:37:16.735Z,69.60
2022-08-09T16:40:02.650Z,70.60
2022-08-09T16:42:29.970Z,70.70
2022-08-09T16:44:56.641Z,70.70
2022-08-09T16:48:43.169Z,71.20
2022-08-09T16:50:31.299Z,71.40
2022-08-09T16:52:57.000Z,71.80
2022-08-09T16:55:23.930Z,72.40
2022-08-09T16:58:08.610Z,72.50
2022-08-09T17:00:38.712Z,72.50
2022-08-09T17:03:21.692Z,72.90
2022-08-09T17:06:06.615Z,72.90
2022-08-09T17:08:44.245Z,72.70
2022-08-09T17:11:15.305Z,73.20
2022-08-09T17:13:45.287Z,72.90
2022-08-09T17:16:12.089Z,73.80
2022-08-09T17:18:39.198Z,73.30
2022-08-09T17:21:05.901Z,73.50
2022-08-09T17:24:21.002Z,73.80
2022-08-09T17:26:31.683Z,74.30
2022-08-09T17:29:04.844Z,75.20
2022-08-09T17:31:40.351Z,75.60
2022-08-09T17:35:00.722Z,75.60
2022-08-09T17:36:54.733Z,75.50
2022-08-09T17:39:25.145Z,75.70
2022-08-09T17:42:08.357Z,75.90
2022-08-09T17:44:55.062Z,75.70
2022-08-09T17:47:21.798Z,75.80
2022-08-09T17:49:55.762Z,75.80
2022-08-09T17:52:29.785Z,76.10
2022-08-09T17:54:56.980Z,76.60
2022-08-09T17:58:02.472Z,76.40
2022-08-09T18:00:11.039Z,76.40
2022-08-09T18:02:40.875Z,77.00
2022-08-09T18:05:17.183Z,77.10
2022-08-09T18:07:48.138Z,77.30
2022-08-09T18:10:15.491Z,77.50
2022-08-09T18:13:40.195Z,77.80
2022-08-09T18:16:05.227Z,78.40
2022-08-09T18:18:25.268Z,78.30
2022-08-09T18:21:10.472Z,78.60
2022-08-09T18:24:12.658Z,78.80
2022-08-09T18:26:26.443Z,79.10
2022-08-09T18:30:37.729Z,79.50
2022-08-09T18:31:55.889Z,79.90
2022-08-09T18:34:35.861Z,80.00
2022-08-09T18:37:03.844Z,80.10
2022-08-09T18:39:32.602Z,80.20
2022-08-09T18:42:01.727Z,80.70
2022-08-09T18:44:28.482Z,80.90
2022-08-09T18:47:04.987Z,81.10
2022-08-09T18:49:41.513Z,81.10
2022-08-09T18:52:14.507Z,81.20
2022-08-09T18:54:52.176Z,81.50
2022-08-09T18:57:19.861Z,82.10
2022-08-09T18:59:57.806Z,81.70
2022-08-09T19:02:32.142Z,81.70
2022-08-09T19:05:20.357Z,81.60
2022-08-09T19:08:04.636Z,82.30
2022-08-09T19:10:39.491Z,82.30
2022-08-09T19:13:20.559Z,82.10
2022-08-09T19:15:52.299Z,82.40
2022-08-09T19:18:33.711Z,82.30
2022-08-09T19:21:11.383Z,82.70
2022-08-09T19:24:33.504Z,82.70
2022-08-09T19:26:32.203Z,82.60
2022-08-09T19:29:15.538Z,82.80
2022-08-09T19:31:46.554Z,82.80
2022-08-09T19:34:22.790Z,83.00
2022-08-09T19:36:55.723Z,83.10
2022-08-09T19:39:43.726Z,83.40
2022-08-09T19:42:14.445Z,83.60
2022-08-09T19:44:42.845Z,84.10
2022-08-09T19:47:11.158Z,84.30
2022-08-09T19:50:07.317Z,84.60
2022-08-09T19:52:26.397Z,85.40
2022-08-09T19:54:56.104Z,86.80
2022-08-09T19:57:26.053Z,88.90
2022-08-09T20:00:05.888Z,90.10
2022-08-09T20:04:11.081Z,91.00
2022-08-09T20:05:24.901Z,91.00
2022-08-09T20:07:59.136Z,91.40
2022-08-09T20:10:36.455Z,91.60
2022-08-09T20:13:06.210Z,92.00
2022-08-09T20:16:33.754Z,92.10
2022-08-09T20:18:22.392Z,92.20
2022-08-09T20:20:51.340Z,92.60
2022-08-09T20:23:23.614Z,92.90
2022-08-09T20:25:52.033Z,93.20
2022-08-09T20:28:34.392Z,93.40
2022-08-09T20:31:05.629Z,93.60
2022-08-09T20:33:41.393Z,93.80
2022-08-09T20:36:11.176Z,93.90
2022-08-09T20:39:18.611Z,94.00
2022-08-09T20:41:32.276Z,93.90
2022-08-09T20:44:03.159Z,94.20
2022-08-09T20:46:42.421Z,94.40
2022-08-09T20:49:11.635Z,94.80
2022-08-09T20:51:41.579Z,94.60
2022-08-09T20:54:16.608Z,94.50
2022-08-09T20:56:47.107Z,94.70
2022-08-09T20:59:17.403Z,94.90
2022-08-09T21:01:50.991Z,95.30
2022-08-09T21:05:56.985Z,95.50
2022-08-09T21:07:12.993Z,95.80
2022-08-09T21:09:56.519Z,96.00
2022-08-09T21:15:17.948Z,96.00
2022-08-09T21:18:11.158Z,96.50
2022-08-09T21:20:38.376Z,95.80
2022-08-09T21:23:09.211Z,96.30
2022-08-09T21:25:59.939Z,97.00
2022-08-09T21:28:33.307Z,96.70
2022-08-09T21:31:17.289Z,96.20
2022-08-09T21:33:52.397Z,96.10
2022-08-09T21:36:23.603Z,95.90
2022-08-09T21:38:57.768Z,95.90
2022-08-09T21:42:04.353Z,95.70
2022-08-09T21:44:33.903Z,95.40
2022-08-09T21:47:07.686Z,95.30
2022-08-09T21:49:39.700Z,95.40
2022-08-09T21:52:14.773Z,96.20
2022-08-09T21:54:50.792Z,96.40
2022-08-09T21:57:39.242Z,96.80
2022-08-09T22:00:26.051Z,96.30
2022-08-09T22:02:58.086Z,96.50
2022-08-09T22:05:35.601Z,96.40
2022-08-09T22:08:05.916Z,96.70
2022-08-09T22:10:33.244Z,96.30
2022-08-09T22:13:00.955Z,96.40
2022-08-09T22:15:35.276Z,96.60
2022-08-09T22:18:04.054Z,96.60
2022-08-09T22:20:31.637Z,97.10
2022-08-09T22:22:58.511Z,97.20
2022-08-09T22:26:12.156Z,97.30
2022-08-09T22:28:12.421Z,97.80
2022-08-09T22:30:41.916Z,98.20
2022-08-09T22:33:17.334Z,98.50
2022-08-09T22:36:03.308Z,98.00
2022-08-09T22:38:30.691Z,98.70
2022-08-09T22:40:58.522Z,98.00
2022-08-09T22:44:01.966Z,97.60
2022-08-09T22:48:14.814Z,97.30
2022-08-09T22:49:05.526Z,98.20
2022-08-09T22:51:38.084Z,98.20
2022-08-09T22:54:08.036Z,98.40
2022-08-09T22:56:38.126Z,99.60
2022-08-09T22:59:55.620Z,99.40
2022-08-09T23:01:55.993Z,99.30
2022-08-09T23:04:22.908Z,99.30
2022-08-09T23:07:14.125Z,99.20
2022-08-09T23:09:43.309Z,99.60
2022-08-09T23:12:10.076Z,99.60
2022-08-09T23:14:41.947Z,99.50
2022-08-09T23:17:10.438Z,99.50
2022-08-09T23:20:06.301Z,99.60
2022-08-09T23:22:24.785Z,99.50
2022-08-09T23:24:51.641Z,99.80
2022-08-09T23:27:18.455Z,99.80
2022-08-09T23:29:45.077Z,99.70
2022-08-09T23:32:12.153Z,99.60
2022-08-09T23:34:38.868Z,99.70
2022-08-09T23:37:06.108Z,99.60
2022-08-09T23:39:33.149Z,99.30
2022-08-09T23:41:59.976Z,99.10
2022-08-09T23:44:26.705Z,99.20
2022-08-09T23:46:57.168Z,99.40
2022-08-09T23:49:25.695Z,99.40
2022-08-09T23:51:53.274Z,99.40
2022-08-09T23:54:26.611Z,99.50
2022-08-09T23:56:56.300Z,99.70
2022-08-09T23:59:25.475Z,99.60
